Terminal Aerodrome Forecast
Issued by NWS Brownsville, TX

Home | Current Version | Previous Version | Text Only | Print | Product List | Glossary On
Versions: 1 2 3 4 5 6 7 8 9 10 11 12 13
000
FTUS44 KBRO 050523
TAFHRL
TAF
KHRL 050523Z 0506/0606 14011KT P6SM SKC
     FM051000 14006KT P6SM FEW025
     FM051500 15014G19KT P6SM SCT025
     FM051800 16016G24KT P6SM SCT040
     FM052200 14015G20KT P6SM FEW030=

USA.gov is the U.S. government's official web portal to all federal, state and local government web resources and services.